Sardinia Vera — IBWV — position and weather

sailwx.info

Track history (hours):
 
Tides and Currents Weather Stations Pressure Air Temp Water Temp Dewpoint Dewpoint Depression Visibility Wind Speed Wind Dir Waves Ship Positions

Sardinia Vera

Last reported at 2016-Feb-09 05:33 UTC. Time now 2016-Feb-09 05:48 UTC.
Position N 43°32' E 010°17'.

; draft 5.6 m.

Type: Passenger vessel. MMSI: 247392000.

Date/timePositionNaut miles runAvg speedWind from/ knotsBaromVisibWave heightAir tempDewpointWater temp
2016-Feb-09 05:33N 43°32' E 010°17'1414.5
2016-Feb-09 04:33N 43°22' E 010°03'1616.4
2016-Feb-09 03:33N 43°10' E 009°46'18 0.6
2016-Feb-07 21:08N 43°15' E 010°10'914.9
2016-Feb-07 20:33N 43°24' E 010°12'1010.2
2016-Feb-07 19:33N 43°33' E 010°18'0 0.0
2016-Feb-07 18:25N 43°33' E 010°18'3 3.8
2016-Feb-07 17:33N 43°31' E 010°15'1616.3
2016-Feb-07 16:33N 43°14' E 010°12'6 0.8
2016-Feb-07 08:33N 43°14' E 010°04'1515.4
2016-Feb-07 07:33N 43°29' E 010°12'6 5.1
2016-Feb-07 06:18N 43°33' E 010°18'0 0.0
2016-Feb-07 05:33N 43°33' E 010°18'1212.5
2016-Feb-07 04:33N 43°23' E 010°09'1514.6
2016-Feb-07 03:30N 43°08' E 010°01'5 0.2
2016-Feb-05 21:24N 43°13' E 010°04'1416.5
2016-Feb-05 20:33N 43°26' E 010°09'10 9.5
2016-Feb-05 19:32N 43°33' E 010°18'0 0.0
2016-Feb-05 18:29N 43°33' E 010°18'0 0.0
2016-Feb-05 17:32N 43°33' E 010°18'0 0.0
2016-Feb-05 16:29N 43°33' E 010°18'0 0.0
2016-Feb-05 15:32N 43°33' E 010°18'0 0.0
2016-Feb-05 14:32N 43°33' E 010°18'23 0.6
2016-Feb-03 21:28N 43°13' E 010°04'1314.7
2016-Feb-03 20:33N 43°25' E 010°10'9 8.6
2016-Feb-03 19:28N 43°33' E 010°18'0 0.0
2016-Feb-03 18:28N 43°33' E 010°18'0 0.0
2016-Feb-03 17:28N 43°33' E 010°18'7 7.8
2016-Feb-03 16:34N 43°28' E 010°11'1716.7
2016-Feb-03 15:33N 43°16' E 009°55'10 1.5
2016-Feb-03 09:04N 43°08' E 010°01'916.7
2016-Feb-03 08:33N 43°16' E 010°05'1716.6
2016-Feb-03 07:33N 43°31' E 010°13'4 4.1
2016-Feb-03 06:34N 43°33' E 010°18'0 0.0
2016-Feb-03 05:33N 43°33' E 010°18'1111.1
2016-Feb-03 04:33N 43°24' E 010°09'17 0.6
2016-Feb-01 22:32N 43°08' E 010°05'1717.2
2016-Feb-01 21:33N 43°24' E 010°11'1110.0
2016-Feb-01 20:29N 43°33' E 010°18'0 0.0
2016-Feb-01 19:32N 43°33' E 010°18'0 0.0
2016-Feb-01 18:32N 43°33' E 010°18'0 0.0
2016-Feb-01 17:32N 43°33' E 010°18'0 0.0
2016-Feb-01 16:32N 43°33' E 010°18'0 0.0
2016-Feb-01 15:32N 43°33' E 010°18'0 0.0
2016-Feb-01 14:32N 43°33' E 010°18'0 0.0
2016-Feb-01 13:29N 43°33' E 010°18'0 0.0
2016-Feb-01 12:32N 43°33' E 010°18'0 0.0
2016-Feb-01 11:29N 43°33' E 010°18'0 0.0
2016-Feb-01 10:32N 43°33' E 010°18'0 0.0
2016-Feb-01 09:32N 43°33' E 010°18'0 0.0
2016-Feb-01 08:26N 43°33' E 010°18'0 0.0
2016-Feb-01 07:32N 43°33' E 010°18'0 0.0
2016-Feb-01 06:33N 43°33' E 010°18'1010.6
2016-Feb-01 05:34N 43°27' E 010°07'1816.9
2016-Feb-01 04:31N 43°14' E 009°50'12 0.4
2016-Jan-30 21:33N 43°12' E 010°06'1615.8
2016-Jan-30 20:34N 43°28' E 010°11'8 7.3
2016-Jan-30 19:31N 43°33' E 010°18'0 0.0
2016-Jan-30 18:28N 43°33' E 010°18'0 0.0
2016-Jan-30 17:31N 43°33' E 010°18'0 0.0
2016-Jan-30 16:25N 43°33' E 010°18'0 0.0
2016-Jan-30 15:31N 43°33' E 010°18'0 0.0
2016-Jan-30 14:31N 43°33' E 010°18'0 0.0
2016-Jan-30 13:31N 43°33' E 010°18'0 0.0
2016-Jan-30 12:31N 43°33' E 010°18'0 0.0
2016-Jan-30 11:31N 43°33' E 010°18'0 0.0
2016-Jan-30 10:28N 43°33' E 010°18'0 0.0
2016-Jan-30 09:31N 43°33' E 010°18'0 0.0
2016-Jan-30 08:31N 43°33' E 010°18'0 0.0
2016-Jan-30 07:31N 43°33' E 010°18'0 0.0
2016-Jan-30 06:31N 43°33' E 010°18'  
Track history (hours):
 
Tides and Currents Weather Stations Pressure Air Temp Water Temp Dewpoint Dewpoint Depression Visibility Wind Speed Wind Dir Waves Ship Positions

Sardinia Vera

Last reported at 2016-Feb-09 05:33 UTC. Time now 2016-Feb-09 05:48 UTC.
Position N 43°32' E 010°17'.

; draft 5.6 m.

Type: Passenger vessel. MMSI: 247392000.

Date/timePositionNaut miles runAvg speedWind from/ knotsBaromVisibWave heightAir tempDewpointWater temp
2016-Feb-09 05:33N 43°32' E 010°17'1414.5
2016-Feb-09 04:33N 43°22' E 010°03'1616.4
2016-Feb-09 03:33N 43°10' E 009°46'18 0.6
2016-Feb-07 21:08N 43°15' E 010°10'914.9
2016-Feb-07 20:33N 43°24' E 010°12'1010.2
2016-Feb-07 19:33N 43°33' E 010°18'0 0.0
2016-Feb-07 18:25N 43°33' E 010°18'3 3.8
2016-Feb-07 17:33N 43°31' E 010°15'1616.3
2016-Feb-07 16:33N 43°14' E 010°12'6 0.8
2016-Feb-07 08:33N 43°14' E 010°04'1515.4
2016-Feb-07 07:33N 43°29' E 010°12'6 5.1
2016-Feb-07 06:18N 43°33' E 010°18'0 0.0
2016-Feb-07 05:33N 43°33' E 010°18'1212.5
2016-Feb-07 04:33N 43°23' E 010°09'1514.6
2016-Feb-07 03:30N 43°08' E 010°01'5 0.2
2016-Feb-05 21:24N 43°13' E 010°04'1416.5
2016-Feb-05 20:33N 43°26' E 010°09'10 9.5
2016-Feb-05 19:32N 43°33' E 010°18'0 0.0
2016-Feb-05 18:29N 43°33' E 010°18'0 0.0
2016-Feb-05 17:32N 43°33' E 010°18'0 0.0
2016-Feb-05 16:29N 43°33' E 010°18'0 0.0
2016-Feb-05 15:32N 43°33' E 010°18'0 0.0
2016-Feb-05 14:32N 43°33' E 010°18'23 0.6
2016-Feb-03 21:28N 43°13' E 010°04'1314.7
2016-Feb-03 20:33N 43°25' E 010°10'9 8.6
2016-Feb-03 19:28N 43°33' E 010°18'0 0.0
2016-Feb-03 18:28N 43°33' E 010°18'0 0.0
2016-Feb-03 17:28N 43°33' E 010°18'7 7.8
2016-Feb-03 16:34N 43°28' E 010°11'1716.7
2016-Feb-03 15:33N 43°16' E 009°55'10 1.5
2016-Feb-03 09:04N 43°08' E 010°01'916.7
2016-Feb-03 08:33N 43°16' E 010°05'1716.6
2016-Feb-03 07:33N 43°31' E 010°13'4 4.1
2016-Feb-03 06:34N 43°33' E 010°18'0 0.0
2016-Feb-03 05:33N 43°33' E 010°18'1111.1
2016-Feb-03 04:33N 43°24' E 010°09'17 0.6
2016-Feb-01 22:32N 43°08' E 010°05'1717.2
2016-Feb-01 21:33N 43°24' E 010°11'1110.0
2016-Feb-01 20:29N 43°33' E 010°18'0 0.0
2016-Feb-01 19:32N 43°33' E 010°18'0 0.0
2016-Feb-01 18:32N 43°33' E 010°18'0 0.0
2016-Feb-01 17:32N 43°33' E 010°18'0 0.0
2016-Feb-01 16:32N 43°33' E 010°18'0 0.0
2016-Feb-01 15:32N 43°33' E 010°18'0 0.0
2016-Feb-01 14:32N 43°33' E 010°18'0 0.0
2016-Feb-01 13:29N 43°33' E 010°18'0 0.0
2016-Feb-01 12:32N 43°33' E 010°18'0 0.0
2016-Feb-01 11:29N 43°33' E 010°18'0 0.0
2016-Feb-01 10:32N 43°33' E 010°18'0 0.0
2016-Feb-01 09:32N 43°33' E 010°18'0 0.0
2016-Feb-01 08:26N 43°33' E 010°18'0 0.0
2016-Feb-01 07:32N 43°33' E 010°18'0 0.0
2016-Feb-01 06:33N 43°33' E 010°18'1010.6
2016-Feb-01 05:34N 43°27' E 010°07'1816.9
2016-Feb-01 04:31N 43°14' E 009°50'12 0.4
2016-Jan-30 21:33N 43°12' E 010°06'1615.8
2016-Jan-30 20:34N 43°28' E 010°11'8 7.3
2016-Jan-30 19:31N 43°33' E 010°18'0 0.0
2016-Jan-30 18:28N 43°33' E 010°18'0 0.0
2016-Jan-30 17:31N 43°33' E 010°18'0 0.0
2016-Jan-30 16:25N 43°33' E 010°18'0 0.0
2016-Jan-30 15:31N 43°33' E 010°18'0 0.0
2016-Jan-30 14:31N 43°33' E 010°18'0 0.0
2016-Jan-30 13:31N 43°33' E 010°18'0 0.0
2016-Jan-30 12:31N 43°33' E 010°18'0 0.0
2016-Jan-30 11:31N 43°33' E 010°18'0 0.0
2016-Jan-30 10:28N 43°33' E 010°18'0 0.0
2016-Jan-30 09:31N 43°33' E 010°18'0 0.0
2016-Jan-30 08:31N 43°33' E 010°18'0 0.0
2016-Jan-30 07:31N 43°33' E 010°18'0 0.0
2016-Jan-30 06:31N 43°33' E 010°18'  

Dump ship's entire track history